createdAt,value
2023-02-08T00:01:00.289Z,99.90
2023-02-08T00:03:29.212Z,99.90
2023-02-08T00:05:56.659Z,99.90
2023-02-08T00:08:24.056Z,99.90
2023-02-08T00:10:51.683Z,99.90
2023-02-08T00:13:19.362Z,99.90
2023-02-08T00:15:47.450Z,99.90
2023-02-08T00:18:15.179Z,99.90
2023-02-08T00:20:43.371Z,99.90
2023-02-08T00:23:12.290Z,99.90
2023-02-08T00:25:41.290Z,99.90
2023-02-08T00:28:13.776Z,99.90
2023-02-08T00:30:42.973Z,99.90
2023-02-08T00:33:11.271Z,99.90
2023-02-08T00:35:39.062Z,99.90
2023-02-08T00:38:06.447Z,99.90
2023-02-08T00:40:33.926Z,99.90
2023-02-08T00:43:01.368Z,99.90
2023-02-08T00:45:28.853Z,99.90
2023-02-08T00:47:57.576Z,99.90
2023-02-08T00:50:25.202Z,99.90
2023-02-08T00:52:52.673Z,99.90
2023-02-08T00:55:20.139Z,99.90
2023-02-08T00:57:47.810Z,99.90
2023-02-08T01:00:15.409Z,99.90
2023-02-08T01:02:42.873Z,99.90
2023-02-08T01:05:11.714Z,99.90
2023-02-08T01:07:40.725Z,99.90
2023-02-08T01:10:12.489Z,99.90
2023-02-08T01:12:41.502Z,99.90
2023-02-08T01:15:09.418Z,99.90
2023-02-08T01:17:36.833Z,99.90
2023-02-08T01:20:04.529Z,99.90
2023-02-08T01:22:31.974Z,99.90
2023-02-08T01:25:01.241Z,99.90
2023-02-08T01:27:28.780Z,99.90
2023-02-08T01:29:56.241Z,99.90
2023-02-08T01:32:23.703Z,99.90
2023-02-08T01:34:51.324Z,99.90
2023-02-08T01:37:18.751Z,99.90
2023-02-08T01:39:48.070Z,99.90
2023-02-08T01:42:17.375Z,99.90
2023-02-08T01:45:33.383Z,99.90
2023-02-08T01:48:12.138Z,99.90
2023-02-08T01:50:52.796Z,99.90
2023-02-08T01:53:21.174Z,99.90
2023-02-08T01:55:54.746Z,99.90
2023-02-08T01:58:24.724Z,99.90
2023-02-08T02:00:52.222Z,99.90
2023-02-08T02:03:22.410Z,99.90
2023-02-08T02:06:01.590Z,99.90
2023-02-08T02:08:30.119Z,99.90
2023-02-08T02:10:57.539Z,99.90
2023-02-08T02:13:27.296Z,99.90
2023-02-08T02:15:55.258Z,99.90
2023-02-08T02:18:29.714Z,99.90
2023-02-08T02:21:17.333Z,99.90
2023-02-08T02:24:05.093Z,99.90
2023-02-08T02:27:09.987Z,99.90
2023-02-08T02:29:49.301Z,99.90
2023-02-08T02:32:58.326Z,99.90
2023-02-08T02:35:40.296Z,99.90
2023-02-08T02:38:11.500Z,99.90
2023-02-08T02:41:03.816Z,99.90
2023-02-08T02:43:43.292Z,99.90
2023-02-08T02:46:37.342Z,99.90
2023-02-08T02:49:27.404Z,99.90
2023-02-08T02:52:03.523Z,99.90
2023-02-08T02:54:47.357Z,99.90
2023-02-08T02:57:19.504Z,99.90
2023-02-08T02:59:47.104Z,99.90
2023-02-08T03:02:14.958Z,99.90
2023-02-08T03:04:42.305Z,99.90
2023-02-08T03:07:18.595Z,99.90
2023-02-08T03:10:07.770Z,99.90
2023-02-08T03:12:58.701Z,99.90
2023-02-08T03:15:47.982Z,99.90
2023-02-08T03:18:18.141Z,99.90
2023-02-08T03:20:57.269Z,99.90
2023-02-08T03:23:48.134Z,99.90
2023-02-08T03:26:32.053Z,99.90
2023-02-08T03:29:06.009Z,99.90
2023-02-08T03:31:41.634Z,99.90
2023-02-08T03:34:21.397Z,99.90
2023-02-08T03:37:18.449Z,99.90
2023-02-08T03:39:49.216Z,99.90
2023-02-08T03:42:23.004Z,99.90
2023-02-08T03:45:27.602Z,99.90
2023-02-08T03:48:00.264Z,99.90
2023-02-08T03:50:30.940Z,99.90
2023-02-08T03:52:58.907Z,99.90
2023-02-08T03:55:30.002Z,99.90
2023-02-08T03:58:08.529Z,99.90
2023-02-08T04:00:42.687Z,99.90
2023-02-08T04:03:19.238Z,99.90
2023-02-08T04:05:47.124Z,99.90
2023-02-08T04:08:15.478Z,99.90
2023-02-08T04:10:43.176Z,99.90
2023-02-08T04:13:10.643Z,99.90
2023-02-08T04:15:38.059Z,99.90
2023-02-08T04:18:05.642Z,99.90
2023-02-08T04:20:33.136Z,99.90
2023-02-08T04:23:00.575Z,99.90
2023-02-08T04:25:28.172Z,99.90
2023-02-08T04:27:55.601Z,99.90
2023-02-08T04:30:23.050Z,99.90
2023-02-08T04:32:50.423Z,99.90
2023-02-08T04:35:17.890Z,99.90
2023-02-08T04:37:45.300Z,99.90
2023-02-08T04:40:13.039Z,99.90
2023-02-08T04:42:40.435Z,99.90
2023-02-08T04:45:08.375Z,99.90
2023-02-08T04:47:35.838Z,99.90
2023-02-08T04:50:03.505Z,99.90
2023-02-08T04:52:31.072Z,99.90
2023-02-08T04:54:58.511Z,99.90
2023-02-08T04:57:25.937Z,99.90
2023-02-08T04:59:53.406Z,99.90
2023-02-08T05:02:21.098Z,99.90
2023-02-08T05:04:48.510Z,99.90
2023-02-08T05:07:15.957Z,99.90
2023-02-08T05:09:43.425Z,99.90
2023-02-08T05:12:10.838Z,99.90
2023-02-08T05:14:38.325Z,99.90
2023-02-08T05:17:05.816Z,99.90
2023-02-08T05:19:33.237Z,99.90
2023-02-08T05:22:00.701Z,99.90
2023-02-08T05:24:28.242Z,99.90
2023-02-08T05:26:55.662Z,99.90
2023-02-08T05:29:23.041Z,99.90
2023-02-08T05:31:50.519Z,99.90
2023-02-08T05:34:17.928Z,99.90
2023-02-08T05:36:45.282Z,99.90
2023-02-08T05:39:12.670Z,99.90
2023-02-08T05:41:39.995Z,99.90
2023-02-08T05:44:08.951Z,99.90
2023-02-08T05:46:38.155Z,99.90
2023-02-08T05:49:05.947Z,99.90
2023-02-08T05:51:33.304Z,99.90
2023-02-08T05:54:00.748Z,99.90
2023-02-08T05:56:28.553Z,99.90
2023-02-08T05:58:56.075Z,99.90
2023-02-08T06:01:23.509Z,99.90
2023-02-08T06:03:51.068Z,99.90
2023-02-08T06:06:18.524Z,99.90
2023-02-08T06:08:46.104Z,99.90
2023-02-08T06:11:13.736Z,99.90
2023-02-08T06:13:41.161Z,99.90
2023-02-08T06:16:08.850Z,99.90
2023-02-08T06:18:36.318Z,99.90
2023-02-08T06:21:04.029Z,99.90
2023-02-08T06:23:31.649Z,99.90
2023-02-08T06:25:59.115Z,99.90
2023-02-08T06:28:26.633Z,99.90
2023-02-08T06:30:54.064Z,99.90
2023-02-08T06:33:21.511Z,99.90
2023-02-08T06:35:52.120Z,99.90
2023-02-08T06:38:20.284Z,99.90
2023-02-08T06:40:49.459Z,99.90
2023-02-08T06:43:17.132Z,99.90
2023-02-08T06:45:46.394Z,99.90
2023-02-08T06:48:14.474Z,99.90
2023-02-08T06:50:42.242Z,99.90
2023-02-08T06:53:09.840Z,99.90
2023-02-08T06:55:37.290Z,99.90
2023-02-08T06:58:04.737Z,99.90
2023-02-08T07:00:32.817Z,99.90
2023-02-08T07:03:00.874Z,99.90
2023-02-08T07:05:28.590Z,99.90
2023-02-08T07:07:56.026Z,99.90
2023-02-08T07:10:23.493Z,99.90
2023-02-08T07:12:50.869Z,99.90
2023-02-08T07:15:18.394Z,99.90
2023-02-08T07:17:45.750Z,99.90
2023-02-08T07:20:13.823Z,99.90
2023-02-08T07:22:41.638Z,99.90
2023-02-08T07:25:09.505Z,99.90
2023-02-08T07:27:37.360Z,99.90
2023-02-08T07:30:05.307Z,99.90
2023-02-08T07:32:34.792Z,99.90
2023-02-08T07:35:02.310Z,98.90
2023-02-08T07:37:29.760Z,97.10
2023-02-08T07:39:57.145Z,96.10
2023-02-08T07:42:24.521Z,95.40
2023-02-08T07:45:07.706Z,94.00
2023-02-08T07:47:35.105Z,93.20
2023-02-08T07:50:02.560Z,92.30
2023-02-08T07:52:30.100Z,90.90
2023-02-08T07:54:57.474Z,89.60
2023-02-08T07:57:25.826Z,86.30
2023-02-08T07:59:54.225Z,81.70
2023-02-08T08:02:21.807Z,78.80
2023-02-08T08:04:49.621Z,75.30
2023-02-08T08:07:17.118Z,71.40
2023-02-08T08:09:44.521Z,70.50
2023-02-08T08:12:11.923Z,67.70
2023-02-08T08:14:39.896Z,66.00
2023-02-08T08:17:07.304Z,64.70
2023-02-08T08:19:34.703Z,62.90
2023-02-08T08:22:02.177Z,63.10
2023-02-08T08:24:31.726Z,63.70
2023-02-08T08:26:59.184Z,62.30
2023-02-08T08:29:26.648Z,61.60
2023-02-08T08:31:55.152Z,63.30
2023-02-08T08:34:30.253Z,62.70
2023-02-08T08:37:01.962Z,61.90
2023-02-08T08:39:33.136Z,60.50
2023-02-08T08:42:07.809Z,62.80
2023-02-08T08:44:36.044Z,61.80
2023-02-08T08:47:05.962Z,58.80
2023-02-08T08:49:34.495Z,59.30
2023-02-08T08:52:01.867Z,59.20
2023-02-08T08:54:29.257Z,59.90
2023-02-08T08:56:56.622Z,58.30
2023-02-08T08:59:24.159Z,58.10
2023-02-08T09:01:51.643Z,59.20
2023-02-08T09:04:19.996Z,61.10
2023-02-08T09:06:47.392Z,61.70
2023-02-08T09:09:15.126Z,62.60
2023-02-08T09:11:42.987Z,63.10
2023-02-08T09:14:12.298Z,63.70
2023-02-08T09:16:44.208Z,63.70
2023-02-08T09:19:11.592Z,64.20
2023-02-08T09:21:40.381Z,66.80
2023-02-08T09:24:07.922Z,66.00
2023-02-08T09:26:36.014Z,67.20
2023-02-08T09:29:03.586Z,66.00
2023-02-08T09:31:32.891Z,63.80
2023-02-08T09:34:01.574Z,63.80
2023-02-08T09:36:32.297Z,64.10
2023-02-08T09:39:06.390Z,62.20
2023-02-08T09:41:55.445Z,62.00
2023-02-08T09:44:48.951Z,62.30
2023-02-08T09:47:21.137Z,63.00
2023-02-08T09:50:10.749Z,64.30
2023-02-08T09:52:55.514Z,65.60
2023-02-08T09:55:46.496Z,64.60
2023-02-08T09:58:19.027Z,65.50
2023-02-08T10:00:50.762Z,65.40
2023-02-08T10:03:27.148Z,64.60
2023-02-08T10:05:55.090Z,64.70
2023-02-08T10:08:26.944Z,65.80
2023-02-08T10:11:10.663Z,65.20
2023-02-08T10:13:52.194Z,62.40
2023-02-08T10:16:24.544Z,64.10
2023-02-08T10:19:29.461Z,63.80
2023-02-08T10:22:20.412Z,63.10
2023-02-08T10:25:32.285Z,64.60
2023-02-08T10:28:23.751Z,67.30
2023-02-08T10:31:03.641Z,66.40
2023-02-08T10:33:50.080Z,67.60
2023-02-08T10:36:26.119Z,67.10
2023-02-08T10:38:55.966Z,69.40
2023-02-08T10:41:36.620Z,68.90
2023-02-08T10:44:25.938Z,70.20
2023-02-08T10:47:08.859Z,70.80
2023-02-08T10:50:04.455Z,71.50
2023-02-08T10:52:32.339Z,73.00
2023-02-08T10:55:00.113Z,74.10
2023-02-08T10:57:34.606Z,74.60
2023-02-08T11:00:04.317Z,73.90
2023-02-08T11:02:42.472Z,73.90
2023-02-08T11:05:13.233Z,74.40
2023-02-08T11:07:40.926Z,75.70
2023-02-08T11:10:19.355Z,74.60
2023-02-08T11:13:26.734Z,74.50
2023-02-08T11:15:58.921Z,75.40
2023-02-08T11:18:27.833Z,75.00
2023-02-08T11:21:29.822Z,74.80
2023-02-08T11:23:58.329Z,76.60
2023-02-08T11:26:32.780Z,76.90
2023-02-08T11:29:17.198Z,77.40
2023-02-08T11:32:00.195Z,79.90
2023-02-08T11:34:40.347Z,78.00
2023-02-08T11:37:17.122Z,77.80
2023-02-08T11:39:54.404Z,77.90
2023-02-08T11:42:24.087Z,78.00
2023-02-08T11:44:53.455Z,77.80
2023-02-08T11:47:30.142Z,76.20
2023-02-08T11:50:00.761Z,78.40
2023-02-08T11:52:39.305Z,77.80
2023-02-08T11:55:18.185Z,77.70
2023-02-08T11:58:06.252Z,77.70
2023-02-08T12:00:38.427Z,77.60
2023-02-08T12:03:11.936Z,78.40
2023-02-08T12:06:01.298Z,78.70
2023-02-08T12:08:44.406Z,77.20
2023-02-08T12:11:37.474Z,77.60
2023-02-08T12:14:14.142Z,78.50
2023-02-08T12:16:57.112Z,79.20
2023-02-08T12:19:56.939Z,78.80
2023-02-08T12:22:27.768Z,79.10
2023-02-08T12:25:21.031Z,78.40
2023-02-08T12:28:23.109Z,78.40
2023-02-08T12:30:50.707Z,78.60
2023-02-08T12:33:34.408Z,78.50
2023-02-08T12:36:26.624Z,78.90
2023-02-08T12:39:19.888Z,78.90
2023-02-08T12:42:09.735Z,79.70
2023-02-08T12:44:46.204Z,80.20
2023-02-08T12:48:03.771Z,80.30
2023-02-08T12:50:53.221Z,80.90
2023-02-08T12:53:31.105Z,81.20
2023-02-08T12:56:02.404Z,81.20
2023-02-08T12:58:35.261Z,81.80
2023-02-08T13:01:11.053Z,81.40
2023-02-08T13:03:59.969Z,79.20
2023-02-08T13:06:41.389Z,79.90
2023-02-08T13:09:25.236Z,81.20
2023-02-08T13:11:59.106Z,81.40
2023-02-08T13:14:34.265Z,81.30
2023-02-08T13:17:27.233Z,81.50
2023-02-08T13:20:06.063Z,82.30
2023-02-08T13:22:41.347Z,81.70
2023-02-08T13:25:29.210Z,81.20
2023-02-08T13:28:03.629Z,82.20
2023-02-08T13:30:38.859Z,81.00
2023-02-08T13:33:18.628Z,79.70
2023-02-08T13:35:53.806Z,79.50
2023-02-08T13:38:33.111Z,77.40
2023-02-08T13:41:24.914Z,77.90
2023-02-08T13:44:05.999Z,77.50
2023-02-08T13:46:49.279Z,78.50
2023-02-08T13:50:01.342Z,78.10
2023-02-08T13:52:48.188Z,78.50
2023-02-08T13:55:32.050Z,78.80
2023-02-08T13:58:25.123Z,79.00
2023-02-08T14:00:55.278Z,80.80
2023-02-08T14:03:29.880Z,81.00
2023-02-08T14:06:02.967Z,80.40
2023-02-08T14:08:39.455Z,81.60
2023-02-08T14:11:21.924Z,81.60
2023-02-08T14:14:15.483Z,82.10
2023-02-08T14:17:28.382Z,82.60
2023-02-08T14:20:01.872Z,82.20
2023-02-08T14:22:38.933Z,82.20
2023-02-08T14:25:17.878Z,83.00
2023-02-08T14:27:56.994Z,83.30
2023-02-08T14:30:33.755Z,82.80
2023-02-08T14:33:07.522Z,83.90
2023-02-08T14:35:39.450Z,84.70
2023-02-08T14:38:19.066Z,84.60
2023-02-08T14:41:00.550Z,85.50
2023-02-08T14:43:34.934Z,86.30
2023-02-08T14:46:40.260Z,85.80
2023-02-08T14:49:14.841Z,86.70
2023-02-08T14:51:56.837Z,86.70
2023-02-08T14:54:44.901Z,86.40
2023-02-08T14:57:32.589Z,86.50
2023-02-08T15:00:02.477Z,87.90
2023-02-08T15:02:31.505Z,86.80
2023-02-08T15:05:01.268Z,86.90
2023-02-08T15:07:33.314Z,87.00
2023-02-08T15:10:07.047Z,87.50
2023-02-08T15:12:38.278Z,86.30
2023-02-08T15:15:06.992Z,86.20
2023-02-08T15:17:45.524Z,87.20
2023-02-08T15:20:23.946Z,87.10
2023-02-08T15:23:03.091Z,88.60
2023-02-08T15:25:36.895Z,88.30
2023-02-08T15:28:18.489Z,88.70
2023-02-08T15:30:53.319Z,88.80
2023-02-08T15:33:21.230Z,88.30
2023-02-08T15:36:21.121Z,88.40
2023-02-08T15:38:48.757Z,88.60
2023-02-08T15:41:36.209Z,89.40
2023-02-08T15:44:23.228Z,90.00
2023-02-08T15:46:55.855Z,90.30
2023-02-08T15:49:44.863Z,90.50
2023-02-08T15:52:18.128Z,90.70
2023-02-08T15:54:46.727Z,90.20
2023-02-08T15:57:19.859Z,90.60
2023-02-08T15:59:48.325Z,90.60
2023-02-08T16:02:28.878Z,90.40
2023-02-08T16:04:57.786Z,90.40
2023-02-08T16:07:38.123Z,90.60
2023-02-08T16:10:07.844Z,90.80
2023-02-08T16:12:35.800Z,90.70
2023-02-08T16:15:03.261Z,90.90
2023-02-08T16:17:45.744Z,91.20
2023-02-08T16:20:42.188Z,91.20
2023-02-08T16:23:23.522Z,91.20
2023-02-08T16:25:51.275Z,91.60
2023-02-08T16:28:31.461Z,91.80
2023-02-08T16:31:01.302Z,92.10
2023-02-08T16:33:30.787Z,92.30
2023-02-08T16:36:02.068Z,92.80
2023-02-08T16:38:32.321Z,93.00
2023-02-08T16:41:12.198Z,93.10
2023-02-08T16:43:43.935Z,93.10
2023-02-08T16:46:11.643Z,93.20
2023-02-08T16:48:41.888Z,93.40
2023-02-08T16:51:33.331Z,93.50
2023-02-08T16:54:07.515Z,93.60
2023-02-08T16:56:36.235Z,93.70
2023-02-08T16:59:04.065Z,93.70
2023-02-08T17:01:33.284Z,93.90
2023-02-08T17:04:00.793Z,93.90
2023-02-08T17:06:34.010Z,94.10
2023-02-08T17:09:04.018Z,94.20
2023-02-08T17:11:32.610Z,94.30
2023-02-08T17:14:00.044Z,94.50
2023-02-08T17:16:32.078Z,94.60
2023-02-08T17:19:00.662Z,92.70
2023-02-08T17:21:29.272Z,91.50
2023-02-08T17:23:57.235Z,91.40
2023-02-08T17:26:32.172Z,91.40
2023-02-08T17:29:00.052Z,91.40
2023-02-08T17:31:34.698Z,91.50
2023-02-08T17:34:04.994Z,91.50
2023-02-08T17:36:34.713Z,91.60
2023-02-08T17:39:03.632Z,91.70
2023-02-08T17:41:31.148Z,91.80
2023-02-08T17:43:58.677Z,92.00
2023-02-08T17:46:30.557Z,92.20
2023-02-08T17:49:03.561Z,92.50
2023-02-08T17:51:31.580Z,92.70
2023-02-08T17:53:59.210Z,92.80
2023-02-08T17:56:29.420Z,93.00
2023-02-08T17:58:57.779Z,93.10
2023-02-08T18:01:27.119Z,93.20
2023-02-08T18:03:55.293Z,93.60
2023-02-08T18:06:25.018Z,93.90
2023-02-08T18:08:53.886Z,94.20
2023-02-08T18:11:23.397Z,94.50
2023-02-08T18:13:55.783Z,94.70
2023-02-08T18:16:26.487Z,94.70
2023-02-08T18:18:59.329Z,95.00
2023-02-08T18:21:27.256Z,95.00
2023-02-08T18:23:55.567Z,94.80
2023-02-08T18:26:25.110Z,94.80
2023-02-08T18:28:53.225Z,94.50
2023-02-08T18:31:21.894Z,94.40
2023-02-08T18:33:50.389Z,94.40
2023-02-08T18:36:19.406Z,94.50
2023-02-08T18:38:50.297Z,94.30
2023-02-08T18:41:24.228Z,94.20
2023-02-08T18:43:53.368Z,93.80
2023-02-08T18:46:22.689Z,92.90
2023-02-08T18:48:52.075Z,92.50
2023-02-08T18:51:21.201Z,92.40
2023-02-08T18:53:53.749Z,92.10
2023-02-08T18:56:24.165Z,91.80
2023-02-08T18:58:53.119Z,91.60
2023-02-08T19:01:23.545Z,91.50
2023-02-08T19:03:52.128Z,91.40
2023-02-08T19:06:24.507Z,91.60
2023-02-08T19:08:56.175Z,91.80
2023-02-08T19:11:31.783Z,91.80
2023-02-08T19:14:02.008Z,91.60
2023-02-08T19:16:31.450Z,91.50
2023-02-08T19:19:02.072Z,91.40
2023-02-08T19:21:31.194Z,91.00
2023-02-08T19:24:00.747Z,91.30
2023-02-08T19:26:32.698Z,91.30
2023-02-08T19:29:03.474Z,91.30
2023-02-08T19:31:31.441Z,91.30
2023-02-08T19:34:01.062Z,91.10
2023-02-08T19:36:41.880Z,91.00
2023-02-08T19:39:12.876Z,91.20
2023-02-08T19:41:40.987Z,91.00
2023-02-08T19:44:12.934Z,91.10
2023-02-08T19:46:43.298Z,91.10
2023-02-08T19:49:12.916Z,91.10
2023-02-08T19:51:40.804Z,91.10
2023-02-08T19:54:13.360Z,91.10
2023-02-08T19:56:41.523Z,91.30
2023-02-08T19:59:22.977Z,91.40
2023-02-08T20:01:50.985Z,91.60
2023-02-08T20:04:18.860Z,91.70
2023-02-08T20:06:46.579Z,91.80
2023-02-08T20:09:15.777Z,91.80
2023-02-08T20:11:56.337Z,91.60
2023-02-08T20:14:32.856Z,91.80
2023-02-08T20:17:02.192Z,91.80
2023-02-08T20:19:30.029Z,91.70
2023-02-08T20:21:57.594Z,91.90
2023-02-08T20:24:25.317Z,92.10
2023-02-08T20:26:52.820Z,92.00
2023-02-08T20:29:20.545Z,92.00
2023-02-08T20:31:51.822Z,92.10
2023-02-08T20:34:19.531Z,92.10
2023-02-08T20:37:06.984Z,92.20
2023-02-08T20:39:36.903Z,92.30
2023-02-08T20:42:04.851Z,92.30
2023-02-08T20:44:32.390Z,92.40
2023-02-08T20:47:00.350Z,92.50
2023-02-08T20:49:28.189Z,92.40
2023-02-08T20:51:56.244Z,92.40
2023-02-08T20:54:24.815Z,92.60
2023-02-08T20:56:53.870Z,92.60
2023-02-08T20:59:21.834Z,92.50
2023-02-08T21:01:50.107Z,92.50
2023-02-08T21:04:21.114Z,92.40
2023-02-08T21:06:53.006Z,92.60
2023-02-08T21:09:21.017Z,92.50
2023-02-08T21:11:49.078Z,92.80
2023-02-08T21:14:20.972Z,93.00
2023-02-08T21:16:51.284Z,92.90
2023-02-08T21:19:20.858Z,93.00
2023-02-08T21:21:53.574Z,93.00
2023-02-08T21:24:21.681Z,93.10
2023-02-08T21:26:49.516Z,93.10
2023-02-08T21:29:17.025Z,93.30
2023-02-08T21:31:44.940Z,93.30
2023-02-08T21:34:13.506Z,93.40
2023-02-08T21:36:41.208Z,93.50
2023-02-08T21:39:08.840Z,93.60
2023-02-08T21:41:36.814Z,93.70
2023-02-08T21:44:08.347Z,94.00
2023-02-08T21:46:36.273Z,94.20
2023-02-08T21:49:22.623Z,94.50
2023-02-08T21:52:08.942Z,94.50
2023-02-08T21:54:42.969Z,94.60
2023-02-08T21:57:23.628Z,94.60
2023-02-08T21:59:53.601Z,94.60
2023-02-08T22:02:29.124Z,94.60
2023-02-08T22:05:01.737Z,94.80
2023-02-08T22:07:29.529Z,94.90
2023-02-08T22:09:57.096Z,95.00
2023-02-08T22:12:24.952Z,94.90
2023-02-08T22:14:52.825Z,95.00
2023-02-08T22:17:20.780Z,95.20
2023-02-08T22:19:48.655Z,95.20
2023-02-08T22:22:16.344Z,95.20
2023-02-08T22:24:44.375Z,95.30
2023-02-08T22:27:12.423Z,95.30
2023-02-08T22:29:40.271Z,95.20
2023-02-08T22:32:10.002Z,95.10
2023-02-08T22:34:41.115Z,95.00
2023-02-08T22:37:09.341Z,94.70
2023-02-08T22:39:36.919Z,94.60
2023-02-08T22:42:08.866Z,94.30
2023-02-08T22:44:36.956Z,94.30
2023-02-08T22:47:09.236Z,94.40
2023-02-08T22:49:39.030Z,94.50
2023-02-08T22:52:08.839Z,94.40
2023-02-08T22:54:36.948Z,94.40
2023-02-08T22:57:06.878Z,94.40
2023-02-08T22:59:38.177Z,94.20
2023-02-08T23:02:06.923Z,94.00
2023-02-08T23:04:34.589Z,93.90
2023-02-08T23:07:02.737Z,93.60
2023-02-08T23:09:30.776Z,93.70
2023-02-08T23:11:58.417Z,93.70
2023-02-08T23:14:26.238Z,93.60
2023-02-08T23:16:54.069Z,93.70
2023-02-08T23:19:21.916Z,93.60
2023-02-08T23:21:49.619Z,93.50
2023-02-08T23:24:17.236Z,93.40
2023-02-08T23:26:45.037Z,93.30
2023-02-08T23:29:12.745Z,93.30
2023-02-08T23:31:41.444Z,93.00
2023-02-08T23:34:11.576Z,92.80
2023-02-08T23:36:39.496Z,92.90
2023-02-08T23:39:07.048Z,92.90
2023-02-08T23:41:35.826Z,92.90
2023-02-08T23:44:05.178Z,92.90
2023-02-08T23:46:35.279Z,93.00
2023-02-08T23:49:03.639Z,93.00
2023-02-08T23:51:31.490Z,92.70
2023-02-08T23:53:59.152Z,92.80
2023-02-08T23:56:30.014Z,92.70
2023-02-08T23:58:59.248Z,92.40
